createdAt,value
2023-11-17T00:01:41.265Z,13.17
2023-11-17T00:04:44.738Z,12.52
2023-11-17T00:07:48.265Z,14.23
2023-11-17T00:10:51.591Z,14.55
2023-11-17T00:13:56.163Z,15.23
2023-11-17T00:17:02.583Z,14.53
2023-11-17T00:20:07.767Z,15.48
2023-11-17T00:23:11.283Z,12.68
2023-11-17T00:26:17.785Z,14.75
2023-11-17T00:29:34.015Z,15.43
2023-11-17T00:32:41.578Z,14.10
2023-11-17T00:35:48.542Z,17.00
2023-11-17T00:38:53.525Z,14.10
2023-11-17T00:42:02.429Z,14.88
2023-11-17T00:45:09.193Z,13.32
2023-11-17T00:48:12.733Z,13.37
2023-11-17T00:51:20.218Z,13.40
2023-11-17T00:54:27.872Z,11.52
2023-11-17T00:57:33.538Z,12.80
2023-11-17T01:00:37.021Z,14.23
2023-11-17T01:03:41.479Z,12.73
2023-11-17T01:06:45.119Z,11.95
2023-11-17T01:09:48.596Z,12.90
2023-11-17T01:12:53.534Z,12.27
2023-11-17T01:15:57.171Z,14.77
2023-11-17T01:19:00.609Z,15.33
2023-11-17T01:22:04.502Z,13.27
2023-11-17T01:25:08.629Z,13.23
2023-11-17T01:28:12.054Z,12.18
2023-11-17T01:31:16.396Z,11.93
2023-11-17T01:34:20.247Z,12.23
2023-11-17T01:37:23.715Z,13.95
2023-11-17T01:40:28.741Z,11.07
2023-11-17T01:43:32.140Z,11.23
2023-11-17T01:46:35.872Z,12.02
2023-11-17T01:49:39.677Z,12.37
2023-11-17T01:52:48.297Z,11.88
2023-11-17T01:55:51.788Z,11.13
2023-11-17T01:58:55.605Z,10.32
2023-11-17T02:01:59.084Z,10.25
2023-11-17T02:05:04.798Z,13.67
2023-11-17T02:08:38.143Z,9.75
2023-11-17T02:12:05.348Z,8.82
2023-11-17T02:15:12.330Z,8.23
2023-11-17T02:18:17.189Z,9.85
2023-11-17T02:21:30.311Z,10.47
2023-11-17T02:24:43.452Z,9.90
2023-11-17T02:28:09.050Z,8.98
2023-11-17T02:31:20.227Z,9.68
2023-11-17T02:34:26.602Z,7.35
2023-11-17T02:37:32.326Z,8.57
2023-11-17T02:40:39.566Z,8.88
2023-11-17T02:43:43.604Z,7.75
2023-11-17T02:46:47.232Z,13.20
2023-11-17T02:50:02.256Z,8.32
2023-11-17T02:53:19.958Z,8.73
2023-11-17T02:56:25.283Z,7.82
2023-11-17T02:59:31.492Z,7.20
2023-11-17T03:02:35.010Z,9.13
2023-11-17T03:05:41.438Z,9.13
2023-11-17T03:08:44.837Z,5.77
2023-11-17T03:11:49.846Z,7.25
2023-11-17T03:14:54.705Z,8.73
2023-11-17T03:18:10.661Z,6.75
2023-11-17T03:21:14.261Z,9.30
2023-11-17T03:24:24.544Z,7.60
2023-11-17T03:27:27.960Z,6.40
2023-11-17T03:30:31.335Z,8.48
2023-11-17T03:33:37.235Z,7.07
2023-11-17T03:36:45.402Z,9.20
2023-11-17T03:39:49.300Z,6.70
2023-11-17T03:42:57.849Z,5.78
2023-11-17T03:46:05.297Z,6.18
2023-11-17T03:49:13.216Z,9.82
2023-11-17T03:52:23.085Z,10.80
2023-11-17T03:55:26.645Z,6.83
2023-11-17T03:58:30.048Z,6.80
2023-11-17T04:01:35.421Z,5.55
2023-11-17T04:04:39.032Z,8.70
2023-11-17T04:07:44.118Z,7.93
2023-11-17T04:10:47.565Z,8.07
2023-11-17T04:13:50.948Z,6.85
2023-11-17T04:16:55.246Z,7.57
2023-11-17T04:19:58.713Z,7.10
2023-11-17T04:23:02.095Z,9.60
2023-11-17T04:26:06.998Z,6.87
2023-11-17T04:29:10.453Z,6.60
2023-11-17T04:32:13.817Z,6.60
2023-11-17T04:35:17.283Z,7.32
2023-11-17T04:38:20.670Z,5.50
2023-11-17T04:41:24.756Z,5.73
2023-11-17T04:44:28.332Z,8.30
2023-11-17T04:47:33.057Z,7.28
2023-11-17T04:50:36.689Z,6.53
2023-11-17T04:53:40.186Z,6.85
2023-11-17T04:56:43.995Z,6.97
2023-11-17T04:59:50.824Z,7.70
2023-11-17T05:02:59.139Z,8.02
2023-11-17T05:06:02.533Z,6.13
2023-11-17T05:09:15.437Z,9.55
2023-11-17T05:12:20.105Z,7.83
2023-11-17T05:15:23.956Z,9.48
2023-11-17T05:18:27.452Z,8.57
2023-11-17T05:21:32.047Z,7.47
2023-11-17T05:24:35.402Z,8.55
2023-11-17T05:27:39.251Z,8.37
2023-11-17T05:30:45.677Z,6.82
2023-11-17T05:33:49.237Z,7.90
2023-11-17T05:36:56.064Z,7.10
2023-11-17T05:39:59.556Z,7.57
2023-11-17T05:43:07.606Z,7.27
2023-11-17T05:46:12.018Z,7.55
2023-11-17T05:49:16.590Z,7.97
2023-11-17T05:52:20.173Z,7.55
2023-11-17T05:55:24.648Z,6.75
2023-11-17T05:58:28.658Z,7.07
2023-11-17T06:01:32.149Z,7.15
2023-11-17T06:04:36.063Z,10.32
2023-11-17T06:07:39.497Z,6.93
2023-11-17T06:10:43.212Z,7.72
2023-11-17T06:13:46.968Z,11.13
2023-11-17T06:16:54.564Z,7.18
2023-11-17T06:20:02.195Z,7.68
2023-11-17T06:23:06.176Z,11.40
2023-11-17T06:26:09.939Z,8.90
2023-11-17T06:29:17.351Z,8.10
2023-11-17T06:32:20.811Z,7.00
2023-11-17T06:35:24.166Z,8.35
2023-11-17T06:38:27.701Z,8.43
2023-11-17T06:41:32.023Z,9.35
2023-11-17T06:44:36.059Z,8.57
2023-11-17T06:47:42.027Z,9.60
2023-11-17T06:50:45.610Z,8.77
2023-11-17T06:53:49.470Z,8.55
2023-11-17T06:56:53.267Z,9.57
2023-11-17T06:59:56.785Z,8.93
2023-11-17T07:03:02.194Z,10.70
2023-11-17T07:06:05.905Z,9.35
2023-11-17T07:09:24.795Z,9.35
2023-11-17T07:12:29.176Z,10.80
2023-11-17T07:15:34.774Z,8.43
2023-11-17T07:18:38.269Z,10.05
2023-11-17T07:21:43.354Z,11.13
2023-11-17T07:24:46.714Z,9.90
2023-11-17T07:27:50.636Z,10.48
2023-11-17T07:30:55.644Z,8.57
2023-11-17T07:33:59.175Z,8.82
2023-11-17T07:37:04.662Z,8.80
2023-11-17T07:40:11.372Z,9.38
2023-11-17T07:43:15.007Z,8.07
2023-11-17T07:46:18.989Z,9.20
2023-11-17T07:49:26.838Z,10.15
2023-11-17T07:52:31.514Z,8.52
2023-11-17T07:55:35.445Z,10.90
2023-11-17T07:58:39.323Z,12.05
2023-11-17T08:01:42.745Z,34.37
2023-11-17T08:04:47.383Z,22.33
2023-11-17T08:07:51.196Z,9.15
2023-11-17T08:10:54.952Z,23.17
2023-11-17T08:13:59.103Z,11.35
2023-11-17T08:17:02.819Z,10.20
2023-11-17T08:20:11.841Z,8.98
2023-11-17T08:23:20.634Z,9.25
2023-11-17T08:26:24.301Z,9.43
2023-11-17T08:29:31.157Z,17.75
2023-11-17T08:32:38.203Z,41.83
2023-11-17T08:35:42.746Z,26.70
2023-11-17T08:38:46.407Z,28.00
2023-11-17T08:41:49.793Z,18.80
2023-11-17T08:44:58.832Z,10.35
2023-11-17T08:48:04.817Z,9.50
2023-11-17T08:51:08.638Z,8.90
2023-11-17T08:54:12.464Z,7.68
2023-11-17T08:57:18.426Z,9.95
2023-11-17T09:00:27.720Z,10.15
2023-11-17T09:03:32.221Z,8.63
2023-11-17T09:06:36.951Z,8.70
2023-11-17T09:09:42.435Z,7.45
2023-11-17T09:12:48.795Z,10.07
2023-11-17T09:15:54.425Z,9.00
2023-11-17T09:19:00.802Z,10.03
2023-11-17T09:22:07.664Z,8.23
2023-11-17T09:25:15.435Z,7.68
2023-11-17T09:28:18.989Z,11.00
2023-11-17T09:31:24.887Z,10.27
2023-11-17T09:34:28.902Z,10.63
2023-11-17T09:37:36.913Z,8.05
2023-11-17T09:40:41.721Z,10.57
2023-11-17T09:43:48.973Z,8.45
2023-11-17T09:46:58.447Z,7.72
2023-11-17T09:50:10.859Z,9.43
2023-11-17T09:53:18.710Z,10.52
2023-11-17T09:56:25.671Z,9.68
2023-11-17T09:59:36.991Z,8.63
2023-11-17T10:02:46.053Z,9.65
2023-11-17T10:05:51.028Z,7.63
2023-11-17T10:08:54.807Z,10.07
2023-11-17T10:11:58.930Z,10.95
2023-11-17T10:15:07.694Z,24.17
2023-11-17T10:18:13.971Z,25.92
2023-11-17T10:21:20.541Z,12.53
2023-11-17T10:24:24.334Z,9.20
2023-11-17T10:27:29.052Z,8.00
2023-11-17T10:30:43.104Z,8.95
2023-11-17T10:33:47.324Z,9.70
2023-11-17T10:36:57.971Z,9.03
2023-11-17T10:40:08.015Z,8.70
2023-11-17T10:43:53.770Z,8.75
2023-11-17T10:46:57.214Z,9.02
2023-11-17T10:50:10.368Z,9.18
2023-11-17T10:53:15.834Z,9.60
2023-11-17T10:56:25.582Z,8.68
2023-11-17T10:59:44.743Z,9.70
2023-11-17T11:02:55.953Z,9.27
2023-11-17T11:06:01.021Z,8.15
2023-11-17T11:09:09.733Z,7.90
2023-11-17T11:12:16.217Z,8.35
2023-11-17T11:15:21.301Z,10.38
2023-11-17T11:18:24.780Z,10.82
2023-11-17T11:21:30.959Z,8.75
2023-11-17T11:24:38.641Z,9.23
2023-11-17T11:27:45.141Z,8.57
2023-11-17T11:30:50.654Z,10.13
2023-11-17T11:33:54.229Z,28.27
2023-11-17T11:36:58.190Z,20.55
2023-11-17T11:40:02.676Z,10.63
2023-11-17T11:43:06.426Z,10.15
2023-11-17T11:46:11.776Z,13.82
2023-11-17T11:49:17.461Z,24.98
2023-11-17T11:52:28.189Z,18.45
2023-11-17T11:55:32.027Z,22.30
2023-11-17T11:58:45.349Z,15.88
2023-11-17T12:01:50.724Z,10.75
2023-11-17T12:04:54.950Z,13.00
2023-11-17T12:07:58.953Z,12.13
2023-11-17T12:11:13.703Z,8.60
2023-11-17T12:14:19.700Z,9.90
2023-11-17T12:17:28.012Z,10.45
2023-11-17T12:20:32.187Z,10.50
2023-11-17T12:23:59.934Z,11.25
2023-11-17T12:27:06.467Z,11.37
2023-11-17T12:30:14.441Z,10.25
2023-11-17T12:33:18.470Z,8.75
2023-11-17T12:36:24.458Z,11.65
2023-11-17T12:39:41.717Z,9.52
2023-11-17T12:42:46.337Z,15.60
2023-11-17T12:45:50.885Z,24.42
2023-11-17T12:48:55.295Z,13.52
2023-11-17T12:52:08.710Z,12.38
2023-11-17T12:55:12.552Z,13.82
2023-11-17T12:58:16.530Z,11.33
2023-11-17T13:01:21.203Z,12.00
2023-11-17T13:04:26.949Z,12.90
2023-11-17T13:07:30.567Z,14.48
2023-11-17T13:10:35.210Z,11.48
2023-11-17T13:13:39.921Z,10.53
2023-11-17T13:16:43.691Z,13.95
2023-11-17T13:19:47.434Z,11.10
2023-11-17T13:22:52.537Z,11.60
2023-11-17T13:26:09.742Z,10.95
2023-11-17T13:29:13.708Z,10.20
2023-11-17T13:32:19.924Z,9.88
2023-11-17T13:35:29.117Z,11.20
2023-11-17T13:38:33.649Z,11.43
2023-11-17T13:41:38.450Z,9.95
2023-11-17T13:44:45.344Z,11.80
2023-11-17T13:48:13.012Z,12.25
2023-11-17T13:51:22.354Z,9.00
2023-11-17T13:54:29.476Z,10.70
2023-11-17T13:57:33.075Z,8.20
2023-11-17T14:00:36.770Z,9.10
2023-11-17T14:03:40.416Z,10.93
2023-11-17T14:06:43.863Z,8.48
2023-11-17T14:09:47.273Z,9.93
2023-11-17T14:12:51.039Z,10.65
2023-11-17T14:15:58.950Z,9.37
2023-11-17T14:19:02.922Z,10.48
2023-11-17T14:22:06.677Z,8.48
2023-11-17T14:25:12.138Z,10.73
2023-11-17T14:28:18.464Z,11.15
2023-11-17T14:31:22.954Z,10.80
2023-11-17T14:34:28.200Z,11.88
2023-11-17T14:37:31.939Z,11.30
2023-11-17T14:40:35.632Z,11.88
2023-11-17T14:43:39.071Z,15.00
2023-11-17T14:46:42.699Z,11.30
2023-11-17T14:49:46.497Z,11.63
2023-11-17T14:52:49.974Z,9.95
2023-11-17T14:55:53.536Z,11.25
2023-11-17T14:58:59.868Z,13.82
2023-11-17T15:02:04.643Z,12.90
2023-11-17T15:05:10.505Z,11.90
2023-11-17T15:08:14.861Z,12.32
2023-11-17T15:11:22.404Z,11.43
2023-11-17T15:14:28.008Z,11.65
2023-11-17T15:17:31.577Z,11.30
2023-11-17T15:20:38.179Z,13.02
2023-11-17T15:23:42.038Z,11.52
2023-11-17T15:26:45.413Z,12.27
2023-11-17T15:29:49.079Z,13.30
2023-11-17T15:32:54.138Z,9.80
2023-11-17T15:35:58.541Z,9.77
2023-11-17T15:39:02.194Z,11.82
2023-11-17T15:42:05.864Z,13.00
2023-11-17T15:45:13.035Z,10.80
2023-11-17T15:48:16.647Z,11.80
2023-11-17T15:51:20.764Z,11.30
2023-11-17T15:54:24.438Z,13.10
2023-11-17T15:57:27.826Z,10.75
2023-11-17T16:00:33.436Z,11.13
2023-11-17T16:03:39.408Z,11.77
2023-11-17T16:06:47.554Z,13.00
2023-11-17T16:09:52.337Z,14.50
2023-11-17T16:12:58.179Z,11.23
2023-11-17T16:16:01.881Z,12.63
2023-11-17T16:19:05.369Z,12.50
2023-11-17T16:22:11.939Z,14.02
2023-11-17T16:25:16.642Z,15.07
2023-11-17T16:28:20.296Z,13.93
2023-11-17T16:31:24.042Z,12.45
2023-11-17T16:34:28.125Z,15.27
2023-11-17T16:37:38.341Z,12.77
2023-11-17T16:40:42.037Z,14.55
2023-11-17T16:43:45.449Z,13.98
2023-11-17T16:46:52.089Z,14.60
2023-11-17T16:49:56.145Z,16.13
2023-11-17T16:52:59.634Z,13.85
2023-11-17T16:56:03.814Z,17.02
2023-11-17T16:59:08.255Z,21.10
2023-11-17T17:02:15.199Z,15.90
2023-11-17T17:05:19.141Z,32.57
2023-11-17T17:08:27.267Z,27.02
2023-11-17T17:11:31.671Z,15.80
2023-11-17T17:14:36.814Z,13.90
2023-11-17T17:17:40.250Z,15.48
2023-11-17T17:20:44.262Z,26.77
2023-11-17T17:23:47.641Z,23.50
2023-11-17T17:26:54.209Z,21.98
2023-11-17T17:29:57.926Z,21.08
2023-11-17T17:33:04.777Z,22.75
2023-11-17T17:36:08.690Z,20.97
2023-11-17T17:39:17.891Z,20.90
2023-11-17T17:42:22.022Z,21.48
2023-11-17T17:45:28.272Z,17.30
2023-11-17T17:48:31.801Z,18.23
2023-11-17T17:51:35.712Z,16.60
2023-11-17T17:54:39.233Z,18.98
2023-11-17T17:57:43.931Z,18.20
2023-11-17T18:00:47.423Z,20.60
2023-11-17T18:03:51.124Z,24.80
2023-11-17T18:06:54.668Z,37.00
2023-11-17T18:09:58.504Z,50.03
2023-11-17T18:13:02.334Z,21.35
2023-11-17T18:16:06.914Z,20.77
2023-11-17T18:19:13.731Z,16.13
2023-11-17T18:22:17.321Z,13.13
2023-11-17T18:25:22.406Z,12.70
2023-11-17T18:28:26.322Z,13.15
2023-11-17T18:31:30.222Z,17.40
2023-11-17T18:34:33.742Z,17.33
2023-11-17T18:37:38.123Z,13.03
2023-11-17T18:40:41.933Z,15.13
2023-11-17T18:43:45.407Z,12.07
2023-11-17T18:46:49.004Z,12.38
2023-11-17T18:49:53.437Z,10.43
2023-11-17T18:52:57.199Z,9.37
2023-11-17T18:56:06.762Z,10.07
2023-11-17T18:59:10.357Z,9.13
2023-11-17T19:02:14.021Z,9.75
2023-11-17T19:05:19.899Z,9.30
2023-11-17T19:08:24.106Z,7.10
2023-11-17T19:11:27.834Z,8.48
2023-11-17T19:14:32.098Z,7.85
2023-11-17T19:17:36.085Z,9.77
2023-11-17T19:20:39.917Z,9.75
2023-11-17T19:23:44.033Z,8.77
2023-11-17T19:27:06.879Z,10.38
2023-11-17T19:30:15.145Z,5.60
2023-11-17T19:33:21.559Z,6.57
2023-11-17T19:36:25.629Z,5.90
2023-11-17T19:39:29.585Z,6.97
2023-11-17T19:42:40.118Z,8.05
2023-11-17T19:45:44.556Z,8.40
2023-11-17T19:48:47.967Z,6.32
2023-11-17T19:51:52.629Z,7.30
2023-11-17T19:54:56.379Z,8.27
2023-11-17T19:57:59.789Z,6.07
2023-11-17T20:01:05.133Z,5.43
2023-11-17T20:04:11.577Z,4.45
2023-11-17T20:07:16.778Z,4.30
2023-11-17T20:10:20.782Z,5.00
2023-11-17T20:13:26.190Z,4.43
2023-11-17T20:16:34.880Z,6.28
2023-11-17T20:19:40.332Z,4.38
2023-11-17T20:22:45.146Z,3.58
2023-11-17T20:25:48.692Z,3.37
2023-11-17T20:28:52.101Z,4.07
2023-11-17T20:31:55.956Z,3.70
2023-11-17T20:34:59.671Z,2.72
2023-11-17T20:38:05.245Z,3.05
2023-11-17T20:41:10.731Z,2.87
2023-11-17T20:44:14.759Z,3.55
2023-11-17T20:47:18.526Z,4.43
2023-11-17T20:50:26.710Z,3.35
2023-11-17T20:53:31.483Z,3.42
2023-11-17T20:56:35.585Z,4.03
2023-11-17T20:59:41.719Z,3.72
2023-11-17T21:02:45.334Z,4.25
2023-11-17T21:05:49.812Z,3.72
2023-11-17T21:08:53.559Z,5.18
2023-11-17T21:11:58.856Z,4.47
2023-11-17T21:15:02.271Z,5.75
2023-11-17T21:18:09.177Z,5.57
2023-11-17T21:21:12.859Z,5.10
2023-11-17T21:24:25.371Z,4.90
2023-11-17T21:27:31.420Z,5.97
2023-11-17T21:30:35.100Z,5.10
2023-11-17T21:33:39.480Z,4.97
2023-11-17T21:36:43.134Z,6.72
2023-11-17T21:39:46.543Z,5.80
2023-11-17T21:42:50.887Z,4.30
2023-11-17T21:45:54.812Z,5.57
2023-11-17T21:48:58.705Z,3.85
2023-11-17T21:52:02.112Z,4.10
2023-11-17T21:55:06.628Z,4.22
2023-11-17T21:58:10.144Z,4.17
2023-11-17T22:01:15.509Z,2.42
2023-11-17T22:04:18.985Z,3.47
2023-11-17T22:07:22.396Z,5.40
2023-11-17T22:10:25.844Z,4.07
2023-11-17T22:13:29.264Z,3.73
2023-11-17T22:16:32.733Z,4.15
2023-11-17T22:19:36.263Z,3.88
2023-11-17T22:22:43.600Z,4.88
2023-11-17T22:25:47.473Z,4.20
2023-11-17T22:28:50.872Z,3.70
2023-11-17T22:31:54.370Z,2.70
2023-11-17T22:34:57.814Z,3.47
2023-11-17T22:38:01.789Z,4.10
2023-11-17T22:41:05.577Z,4.05
2023-11-17T22:44:09.074Z,3.23
2023-11-17T22:47:12.540Z,4.05
2023-11-17T22:50:17.655Z,3.65
2023-11-17T22:53:21.660Z,3.67
2023-11-17T22:56:24.988Z,3.58
2023-11-17T22:59:28.567Z,7.00
2023-11-17T23:02:32.086Z,4.70
2023-11-17T23:05:43.554Z,3.90
2023-11-17T23:08:47.885Z,4.97
2023-11-17T23:11:51.338Z,4.85
2023-11-17T23:14:56.292Z,4.43
2023-11-17T23:17:59.854Z,5.45
2023-11-17T23:21:06.639Z,4.15
2023-11-17T23:24:11.718Z,6.97
2023-11-17T23:27:16.197Z,3.70
2023-11-17T23:30:20.835Z,3.93
2023-11-17T23:33:24.412Z,5.55
2023-11-17T23:36:27.835Z,4.70
2023-11-17T23:39:31.574Z,3.30
2023-11-17T23:42:34.967Z,6.80
2023-11-17T23:45:38.566Z,4.23
2023-11-17T23:48:42.242Z,8.05
2023-11-17T23:51:46.474Z,7.93
2023-11-17T23:54:49.798Z,6.85
2023-11-17T23:57:54.235Z,6.00
